To NAV CANADA Home Page Login to a new session Search on AWWS site Disclaimer Vers la page française équivalente Tips FAQ What's new on the site To the Forecasts and Observations / NOTAM section To "File a Flight Plan" website Publications and other links Update of the User's profile FIC Telephone Numbers My Weather Data Folder Route Weather Data Regional Weather Data Local Weather Data To the Forecasts and Observations / NOTAM section
Request Generated 01/21/2021 at 02:17:39 UTC . Weather information available at that time is displayed.

METAR/TAF

KITCHENER/WATERLOO/ON    (show WxCam)

METAR CYKF 210200Z AUTO 17008KT 9SM SCT020 SCT028 BKN130 BKN150 M06/M10 A2986 RMK SLP135=
SPECI CYKF 210149Z AUTO 18007KT 9SM SCT020 BKN030 BKN140 BKN170 M06/M10 A2986 RMK SLP135=
SPECI CYKF 210132Z AUTO 18008KT 9SM -SN FEW020 BKN030 BKN140 BKN170 M07/M10 A2988 RMK PRESFR SLP140=
SPECI CYKF 210117Z AUTO 19008KT 9SM FEW022 OVC030 M07/M11 A2990 RMK PRESFR SLP145=
SPECI CYKF 210112Z AUTO 19009KT 9SM -SN SCT022 BKN028 OVC034 M07/M11 A2991 RMK PRESFR SLP147=
SPECI CYKF 210110Z AUTO 19010KT 9SM -SN BKN022 BKN028 OVC034 M07/M11 A2991 RMK SLP148=
SPECI CYKF 210109Z AUTO 20010KT 9SM -SN SCT022 BKN028 OVC034 M07/M11 A2991 RMK SLP149=
SPECI CYKF 210106Z AUTO 19008KT 9SM -SN BKN022 BKN028 OVC034 M07/M11 A2991 RMK PRESFR SLP149=
SPECI CYKF 210102Z AUTO 20008KT 9SM BKN022 OVC028 M07/M11 A2992 RMK SLP151=
METAR CYKF 210100Z AUTO 19009KT 9SM SCT022 OVC028 M07/M11 A2992 RMK SLP151=
SPECI CYKF 210052Z AUTO 19009KT 9SM SCT022 OVC028 M07/M11 A2993 RMK SLP154=
SPECI CYKF 210031Z AUTO 21009KT 9SM BKN022 BKN028 OVC150 M07/M11 A2994 RMK SLP159=
SPECI CYKF 210030Z AUTO 21009KT 9SM SCT022 BKN028 OVC150 M07/M11 A2994 RMK SLP159=
SPECI CYKF 210029Z AUTO 22009KT 9SM BKN022 BKN028 OVC150 M07/M11 A2994 RMK SLP160=
SPECI CYKF 210028Z AUTO 21009KT 9SM SCT022 BKN026 OVC150 M07/M11 A2994 RMK SLP160=
SPECI CYKF 210020Z AUTO 21007KT 9SM BKN024 OVC150 M07/M11 A2994 RMK PRESRR SLP160=
METAR CYKF 210000Z AUTO 21007KT 180V240 9SM BKN150 BKN170 M07/M12 A2993 RMK SLP157=

TAF CYKF 210138Z 2102/2114 19008KT P6SM FEW020 OVC030 TEMPO 2102/2104
OVC020
FM210400 20010G20KT P6SM OVC025 TEMPO 2104/2106 4SM -SN OVC015
FM210600 22015G25KT 21/2SM -SN BLSN OVC012 TEMPO 2106/2111 6SM
-SN OVC025
FM211100 24012G22KT P6SM OVC020
RMK FCST BASED ON AUTO OBS. NXT FCST BY 210800Z=

LONDON/ON    

METAR CYXU 210200Z 21013G18KT 15SM FEW030 FEW100 OVC170 M04/M08 A2987 RMK SC1AC1AS7 SC TR SLP132=
METAR CYXU 210100Z 21011G18KT 15SM FEW030 OVC140 M05/M08 A2992 RMK SC2AS6 PRESFR SLP149=
METAR CYXU 210000Z 22010KT 15SM FEW023 BKN030 M05/M09 A2997 RMK SC2SC5 SLP164=

TAF CYXU 202338Z 2100/2124 21010G20KT P6SM BKN025 OVC140 TEMPO
2100/2105 OVC020
FM210500 21015G25KT P6SM OVC025 TEMPO 2105/2113 4SM -SN OVC020
FM211300 24015G25KT 2SM -SHSN OVC012
FM212200 26015G25KT 1SM -SHSN VV010
RMK NXT FCST BY 210600Z=

HAMILTON/ON    

METAR CYHM 210200Z 20010KT 15SM -SN BKN035 M05/M09 A2991 RMK SC7 MOON PTLY VISBL SLP143=
METAR CYHM 210100Z 21006KT 15SM -SN BKN035 M06/M11 A2997 RMK SC7 MOON VISBL SLP163=
METAR CYHM 210000Z 21007KT 15SM BKN150 M06/M11 A2997 RMK AC7 MOON VISBL SLP164=

TAF CYHM 202338Z 2100/2124 23010KT P6SM FEW030 BKN140
FM210300 21012G22KT P6SM OVC030 TEMPO 2103/2105 P6SM -SN OVC020
FM210500 21015G25KT 4SM -SN OVC020 TEMPO 2105/2107 P6SM -SN
OVC025
FM210700 22015G25KT 21/2SM -SN OVC015
FM211100 24018G28KT P6SM -SHSN OVC020
RMK NXT FCST BY 210600Z=

TORONTO/LESTER B. PEARSON INTL/ON    

METAR CYYZ 210200Z 18005KT 150V220 15SM SCT030 BKN140 M05/M12 A2992 RMK SC3AC3 PRESFR SLP143=
METAR CYYZ 210100Z 21009KT 15SM SCT080 BKN160 M05/M12 A2996 RMK AC3AC3 SLP158=
METAR CYYZ 210000Z 22013KT 15SM BKN030 BKN085 BKN180 M05/M11 A2998 RMK SC5AC1AC1 SLP163=

TAF CYYZ 202338Z 2100/2206 22012KT P6SM OVC030
FM210500 21013G23KT 4SM -SN OVC025 TEMPO 2105/2107 P6SM -SN
OVC030
FM210700 22015G25KT 21/2SM -SN OVC020
FM211100 24015G25KT P6SM -SHSN SCT020 BKN030
BECMG 2123/2201 27012G22KT
RMK NXT FCST BY 210300Z=

TORONTO/BILLY BISHOP TORONTO CITY AIRPORT/ON    (show WxCam)

METAR CYTZ 210200Z AUTO 23014G19KT 9SM SCT036 OVC150 M03/M09 A2995 RMK SLP150=
METAR CYTZ 210100Z AUTO 23015KT 9SM OVC080 M04/M10 A2999 RMK SLP161=
METAR CYTZ 210000Z AUTO 24014KT 9SM BKN033 BKN170 OVC200 M04/M09 A3000 RMK SLP163=

TAF CYTZ 210138Z 2102/2202 23015KT P6SM BKN030 OVC080
FM210600 23015G30KT 4SM -SN OVC025 TEMPO 2106/2107 P6SM NSW
FM210700 23015G30KT 21/2SM -SN BLSN OVC020 TEMPO 2107/2111 6SM
-SN OVC025
FM211100 24015G30KT P6SM -SHSN SCT020 BKN030
RMK FCST BASED ON AUTO OBS. NXT FCST BY 210800Z=

WIARTON/ON    

METAR CYVV 210200Z 18016G23KT 15SM OVC048 M06/M10 A2974 RMK SC8 PRESFR SLP087=
METAR CYVV 210100Z 18018G24KT 15SM BKN032 M06/M10 A2981 RMK SC7 PRESFR SLP111=
METAR CYVV 210000Z 18013G20KT 15SM OVC032 M06/M11 A2987 RMK SC8 SLP130=

*** REMARK        : Forecast period has ended; this was the last TAF issued
*** REMARQUE : La période de prévision est échue; ceci était le dernier TAF qui a été émis
TAF AMD CYVV 201943Z 2020/2024 20010KT P6SM OVC025 TEMPO 2020/2024
21/2SM -SHSN OVC020
RMK NXT FCST WILL BE ISSUED AT 211145Z=
Your time UTC time
Weather data provided by Environment Canada and NAV CANADA